Flight Track Log - Related Links

Times and Time Zones

All times are in EDT time to prevent confusion due to time zone crossing. See the ASQ5685 flight status page for this flight to view local times or setup timezone preferences in your user account.

Time Position Orientation Groundspeed Altitude Reporting Facility
EDT Latitude Longitude Course Direction KTS MPH feet Rate Location/Type
Tue 09:35:30 AM 33.6167 -84.5000 48° Northeast 203 234 3,600  Level Atlanta TRACON
Tue 09:36:06 AM 33.6075 -84.5403 255° West 389 448 4,400 1,875 Climbing Atlanta Center
Tue 09:37:00 AM 33.8492 -84.1754 73° East  Level Estimated
Tue 09:37:06 AM 33.5467 -84.5897 214° Southwest 278 320 6,600  Level Atlanta Center
Tue 09:38:00 AM 33.9199 -84.0909 54° Northeast  Level Estimated
Tue 09:38:06 AM 33.4717 -84.5642 164° South 302 348 9,100  Level Atlanta Center
Tue 09:39:00 AM 33.8997 -83.9735 102° East  Level FlightAware Approximate
Tue 09:39:06 AM 33.4553 -84.4644 101° East 289 333 11,200  Level Atlanta Center
Tue 09:40:00 AM 33.9711 -83.8898 48° Northeast  Level Estimated
Tue 09:40:06 AM 33.4558 -84.3500 90° East 323 372 12,900  Level Atlanta Center
Tue 09:41:06 AM 33.4978 -84.2531 63° Northeast 322 371 14,500 1,600 Climbing Atlanta Center
Tue 09:42:06 AM 33.5814 -84.1933 31° Northeast 333 383 16,100 1,500 Climbing Atlanta Center
Tue 09:43:06 AM 33.6814 -84.1286 28° Northeast 352 405 17,500 1,150 Climbing Atlanta Center
Tue 09:44:06 AM 33.7589 -84.0464 41° Northeast 359 413 18,400 1,000 Climbing Atlanta Center
Tue 09:45:06 AM 33.8172 -83.9339 58° Northeast 371 427 19,500 850 Climbing Atlanta Center
Tue 09:46:06 AM 33.8756 -83.8161 59° Northeast 396 456 20,100 600 Climbing Atlanta Center
Tue 09:47:06 AM 33.9378 -83.7008 57° Northeast 412 474 20,700 600 Climbing Atlanta Center
Tue 09:48:06 AM 34.0083 -83.5903 52° Northeast 417 480 21,300 600 Climbing Atlanta Center
Tue 09:49:06 AM 34.0808 -83.4744 53° Northeast 428 493 21,900 600 Climbing Atlanta Center
Tue 09:50:06 AM 34.1533 -83.3586 53° Northeast 428 493 22,500 650 Climbing Atlanta Center
Tue 09:51:06 AM 34.2258 -83.2422 53° Northeast 428 493 23,200 650 Climbing Atlanta Center
Tue 09:52:06 AM 34.3000 -83.1233 53° Northeast 433 498 23,800 600 Climbing Atlanta Center
Tue 09:53:06 AM 34.3700 -83.0069 54° Northeast 433 498 24,400 600 Climbing Atlanta Center
Tue 09:54:06 AM 34.4422 -82.8928 52° Northeast 438 504 25,000 600 Climbing Atlanta Center
Tue 09:55:06 AM 34.5142 -82.7758 53° Northeast 433 498 25,600 550 Climbing Atlanta Center
Tue 09:56:06 AM 34.5817 -82.6664 53° Northeast 433 498 26,100 600 Climbing Atlanta Center
Tue 09:57:06 AM 34.6617 -82.5386 53° Northeast 439 505 26,800 450 Climbing Atlanta Center
Tue 09:58:06 AM 34.7372 -82.4161 53° Northeast 439 505 27,000 100 Climbing Atlanta Center
Tue 09:59:06 AM 34.8108 -82.2906 54° Northeast 449 517 27,000  Level Atlanta Center
Tue 10:00:06 AM 34.8881 -82.1650 53° Northeast 449 517 27,000  Level Atlanta Center
Tue 10:01:06 AM 34.9675 -82.0389 52° Northeast 461 531 27,000  Level Atlanta Center
Tue 10:02:06 AM 35.0367 -81.9231 54° Northeast 466 536 27,000  Level Atlanta Center
Tue 10:03:06 AM 35.1094 -81.7917 56° Northeast 473 544 27,000  Level Atlanta Center
Tue 10:04:06 AM 35.1819 -81.6525 57° Northeast 473 544 27,000  Level Atlanta Center
Tue 10:05:06 AM 35.2522 -81.5158 58° Northeast 473 544 27,000  Level Atlanta Center
Tue 10:06:06 AM 35.3222 -81.3789 58° Northeast 473 544 27,000  Level Atlanta Center
Tue 10:07:06 AM 35.3942 -81.2414 57° Northeast 473 544 27,000  Level Atlanta Center
Tue 10:08:06 AM 35.4642 -81.1039 58° Northeast 473 544 27,000  Level Atlanta Center
Tue 10:09:06 AM 35.5378 -80.9633 57° Northeast 484 557 27,000  Level Atlanta Center
Tue 10:10:06 AM 35.6094 -80.8278 57° Northeast 484 557 27,000  Level Atlanta Center
Tue 10:11:06 AM 35.6789 -80.6897 58° Northeast 484 557 27,000  Level Atlanta Center
Tue 10:12:06 AM 35.7522 -80.5536 56° Northeast 484 557 27,000  Level Atlanta Center
Tue 10:13:40 AM 35.8572 -80.3408 59° Northeast 490 564 27,000  Level Washington Center
Tue 10:14:38 AM 35.9275 -80.2014 58° Northeast 479 551 27,000  Level Washington Center
Tue 10:15:39 AM 35.9992 -80.0697 56° Northeast 479 551 27,000  Level Washington Center
Tue 10:16:40 AM 36.0731 -79.9325 56° Northeast 469 540 27,000  Level Washington Center
Tue 10:17:38 AM 36.1486 -79.8028 54° Northeast 469 540 27,000  Level Washington Center
Tue 10:18:39 AM 36.2311 -79.6528 56° Northeast 477 549 27,000 -298 Level Washington Center
Tue 10:19:39 AM 36.3067 -79.5150 56° Northeast 477 549 26,400 -645 Descending Washington Center
Tue 10:20:40 AM 36.3753 -79.3972 54° Northeast 477 549 25,700 -645 Descending Washington Center
Tue 10:21:40 AM 36.4483 -79.2586 57° Northeast 477 549 25,100 -356 Descending Washington Center
Tue 10:22:38 AM 36.5319 -79.1153 54° Northeast 477 549 25,000 -51 Descending Washington Center
Tue 10:23:38 AM 36.6067 -78.9842 55° Northeast 464 534 25,000  Level Washington Center
Tue 10:24:39 AM 36.6794 -78.8447 57° Northeast 464 534 25,000  Level Washington Center
Tue 10:25:40 AM 36.7453 -78.7258 55° Northeast 464 534 25,000  Level Washington Center
Tue 10:26:38 AM 36.8172 -78.5989 55° Northeast 459 528 25,000 -508 Level Washington Center
Tue 10:27:38 AM 36.9133 -78.5092 37° Northeast 440 506 24,000 -1,190 Descending Washington Center
Tue 10:28:39 AM 37.0261 -78.4197 32° Northeast 433 498 22,600 -984 Descending Washington Center
Tue 10:29:40 AM 37.1239 -78.3400 33° Northeast 428 493 22,000 -303 Descending Washington Center
Tue 10:30:38 AM 37.2153 -78.2625 34° Northeast 415 478 22,000  Level Washington Center
Tue 10:31:39 AM 37.3047 -78.1872 34° Northeast 402 463 22,000 -295 Level Washington Center
Tue 10:32:40 AM 37.3958 -78.1144 32° Northeast 388 447 21,400 -908 Descending Washington Center
Tue 10:33:38 AM 37.4894 -78.0311 35° Northeast 388 447 20,200 -1,563 Descending Washington Center
Tue 10:34:39 AM 37.5786 -77.9556 34° Northeast 393 452 18,300 -1,736 Descending Washington Center
Tue 10:35:39 AM 37.6633 -77.8900 31° Northeast 381 438 16,700 -1,736 Descending Washington Center
Tue 10:36:40 AM 37.7397 -77.8214 35° Northeast 360 414 14,800 -1,916 Descending Washington Center
Tue 10:37:38 AM 37.8139 -77.7578 34° Northeast 339 390 12,900 -1,916 Descending Washington Center
Tue 10:38:39 AM 37.8878 -77.6967 33° Northeast 320 368 11,000 -1,426 Descending Washington Center
Tue 10:39:40 AM 37.9556 -77.6356 35° Northeast 309 356 10,000 -504 Descending Washington Center
Tue 10:40:38 AM 38.0256 -77.5767 34° Northeast 304 350 10,000  Level Washington Center
Tue 10:41:38 AM 38.0889 -77.5283 31° Northeast 304 350 10,000  Level Washington Center
Tue 10:42:40 AM 38.1586 -77.4667 35° Northeast 304 350 10,000  Level Washington Center
Tue 10:43:40 AM 38.2303 -77.4156 29° Northeast 299 344 10,000 -203 Level Washington Center
Tue 10:44:38 AM 38.3053 -77.4147 360° North 273 314 9,600 -908 Descending Washington Center
Tue 10:45:39 AM 38.3758 -77.4483 340° North 252 290 8,200 -1,636 Descending Washington Center
Tue 10:46:39 AM 38.4531 -77.4475 360° North 257 296 6,300 -2,100 Descending Washington Center
Tue 10:47:39 AM 38.5322 -77.4469 360° North 257 296 4,000 -1,636 Descending Washington Center
Tue 10:48:40 AM 38.6053 -77.4461 North 251 289 3,000 -556 Descending Washington Center
Tue 10:49:27 AM 38.6667 -77.4333 North 262 302 3,000  Level Potomac TRACON
Tue 10:50:27 AM 38.7333 -77.4333 360° North 226 260 3,000 -100 Level Potomac TRACON
Tue 10:51:27 AM 38.8000 -77.4333 360° North 202 232 2,800 -474 Descending Potomac TRACON
Tue 10:52:21 AM 38.8333 -77.4333 360° North 183 211 2,100 -835 Descending Potomac TRACON
Tue 10:53:22 AM 38.8833 -77.4333 360° North 150 173 1,200 -885 Descending Potomac TRACON

Login

Don't have an account? Register now (free) for customized features, flight alerts, and more!